Terminal Aerodrome Forecast
Issued by NWS Central Illinois

Current Version | Previous Version | Text Only | Print | Product List | Glossary On
Versions: 1 2 3 4 5 6 7 8 9 10 11 12 13 14 15 16 17 18 19 20 21
618
FTUS43 KILX 221458 AAB
TAFSPI
TAF AMD
KSPI 221458Z 2215/2312 30005KT P6SM OVC040
     FM221800 31010G17KT P6SM BKN050
     FM222300 32009KT P6SM SCT090
     FM230200 34005KT P6SM SKC
     FM230900 34005KT 4SM BR SKC=

USA.gov is the U.S. government's official web portal to all federal, state and local government web resources and services.